sensor_id;sensor_type;location;lat;lon;timestamp;P1;durP1;ratioP1;P2;durP2;ratioP2
56329;SDS011;42236;48.058;10.632;2022-10-01T00:03:19;10.80;;;7.47;;
56329;SDS011;42236;48.058;10.632;2022-10-01T00:06:27;8.97;;;6.80;;
56329;SDS011;42236;48.058;10.632;2022-10-01T00:09:12;9.77;;;6.70;;
56329;SDS011;42236;48.058;10.632;2022-10-01T00:12:10;9.30;;;7.03;;
56329;SDS011;42236;48.058;10.632;2022-10-01T00:18:30;8.30;;;6.40;;
56329;SDS011;42236;48.058;10.632;2022-10-01T00:24:24;10.27;;;7.23;;
56329;SDS011;42236;48.058;10.632;2022-10-01T00:30:56;8.33;;;6.40;;
56329;SDS011;42236;48.058;10.632;2022-10-01T00:37:18;11.33;;;8.07;;
56329;SDS011;42236;48.058;10.632;2022-10-01T00:43:32;7.50;;;5.63;;
56329;SDS011;42236;48.058;10.632;2022-10-01T01:01:43;10.83;;;6.60;;
56329;SDS011;42236;48.058;10.632;2022-10-01T01:27:39;8.07;;;6.33;;
56329;SDS011;42236;48.058;10.632;2022-10-01T01:30:29;7.83;;;6.17;;
56329;SDS011;42236;48.058;10.632;2022-10-01T01:34:07;11.53;;;7.43;;
56329;SDS011;42236;48.058;10.632;2022-10-01T01:45:21;9.63;;;6.63;;
56329;SDS011;42236;48.058;10.632;2022-10-01T02:21:06;7.13;;;5.47;;
56329;SDS011;42236;48.058;10.632;2022-10-01T02:46:51;5.97;;;4.60;;
56329;SDS011;42236;48.058;10.632;2022-10-01T02:53:26;9.07;;;5.13;;
56329;SDS011;42236;48.058;10.632;2022-10-01T02:56:35;7.70;;;5.30;;
56329;SDS011;42236;48.058;10.632;2022-10-01T02:59:24;5.50;;;4.60;;
56329;SDS011;42236;48.058;10.632;2022-10-01T03:02:17;6.30;;;3.93;;
56329;SDS011;42236;48.058;10.632;2022-10-01T03:04:46;8.13;;;4.40;;
56329;SDS011;42236;48.058;10.632;2022-10-01T03:07:13;5.70;;;4.13;;
56329;SDS011;42236;48.058;10.632;2022-10-01T03:09:42;6.40;;;4.60;;
56329;SDS011;42236;48.058;10.632;2022-10-01T03:12:13;7.53;;;4.37;;
56329;SDS011;42236;48.058;10.632;2022-10-01T03:14:44;5.20;;;4.30;;
56329;SDS011;42236;48.058;10.632;2022-10-01T03:17:19;5.53;;;4.33;;
56329;SDS011;42236;48.058;10.632;2022-10-01T03:19:44;6.03;;;5.17;;
56329;SDS011;42236;48.058;10.632;2022-10-01T03:25:04;8.00;;;5.50;;
56329;SDS011;42236;48.058;10.632;2022-10-01T03:27:30;6.47;;;5.03;;
56329;SDS011;42236;48.058;10.632;2022-10-01T03:30:21;7.17;;;5.43;;
56329;SDS011;42236;48.058;10.632;2022-10-01T03:32:47;7.40;;;5.43;;
56329;SDS011;42236;48.058;10.632;2022-10-01T03:35:20;7.60;;;6.30;;
56329;SDS011;42236;48.058;10.632;2022-10-01T03:37:46;10.20;;;6.93;;
56329;SDS011;42236;48.058;10.632;2022-10-01T03:40:12;10.17;;;7.23;;
56329;SDS011;42236;48.058;10.632;2022-10-01T03:42:38;10.40;;;6.83;;
56329;SDS011;42236;48.058;10.632;2022-10-01T03:45:03;11.87;;;8.37;;
56329;SDS011;42236;48.058;10.632;2022-10-01T03:48:29;12.83;;;8.27;;
56329;SDS011;42236;48.058;10.632;2022-10-01T03:50:51;12.17;;;7.80;;
56329;SDS011;42236;48.058;10.632;2022-10-01T03:53:21;10.93;;;8.30;;
56329;SDS011;42236;48.058;10.632;2022-10-01T03:55:48;10.40;;;7.43;;
56329;SDS011;42236;48.058;10.632;2022-10-01T03:58:13;12.33;;;7.87;;
56329;SDS011;42236;48.058;10.632;2022-10-01T04:00:39;10.93;;;8.00;;
56329;SDS011;42236;48.058;10.632;2022-10-01T04:03:15;11.97;;;8.17;;
56329;SDS011;42236;48.058;10.632;2022-10-01T04:06:02;13.73;;;8.30;;
56329;SDS011;42236;48.058;10.632;2022-10-01T04:08:49;10.57;;;8.00;;
56329;SDS011;42236;48.058;10.632;2022-10-01T04:11:14;10.23;;;7.93;;
56329;SDS011;42236;48.058;10.632;2022-10-01T04:13:49;11.37;;;8.43;;
56329;SDS011;42236;48.058;10.632;2022-10-01T04:16:15;12.47;;;8.13;;
56329;SDS011;42236;48.058;10.632;2022-10-01T04:18:43;12.17;;;8.00;;
56329;SDS011;42236;48.058;10.632;2022-10-01T04:21:09;10.80;;;7.53;;
56329;SDS011;42236;48.058;10.632;2022-10-01T04:24:22;10.77;;;7.47;;
56329;SDS011;42236;48.058;10.632;2022-10-01T04:26:31;12.60;;;8.50;;
56329;SDS011;42236;48.058;10.632;2022-10-01T04:28:56;10.40;;;8.17;;
56329;SDS011;42236;48.058;10.632;2022-10-01T04:31:23;11.93;;;7.70;;
56329;SDS011;42236;48.058;10.632;2022-10-01T04:37:06;12.17;;;8.17;;
56329;SDS011;42236;48.058;10.632;2022-10-01T04:39:59;11.43;;;8.17;;
56329;SDS011;42236;48.058;10.632;2022-10-01T04:42:25;11.97;;;8.67;;
56329;SDS011;42236;48.058;10.632;2022-10-01T04:44:53;12.07;;;7.90;;
56329;SDS011;42236;48.058;10.632;2022-10-01T04:47:21;12.93;;;8.60;;
56329;SDS011;42236;48.058;10.632;2022-10-01T04:49:46;10.73;;;7.70;;
56329;SDS011;42236;48.058;10.632;2022-10-01T04:52:20;10.63;;;8.07;;
56329;SDS011;42236;48.058;10.632;2022-10-01T04:54:46;10.73;;;7.93;;
56329;SDS011;42236;48.058;10.632;2022-10-01T04:57:11;10.37;;;7.97;;
56329;SDS011;42236;48.058;10.632;2022-10-01T04:59:37;12.10;;;8.27;;
56329;SDS011;42236;48.058;10.632;2022-10-01T05:02:05;10.03;;;7.73;;
56329;SDS011;42236;48.058;10.632;2022-10-01T05:04:41;11.30;;;8.23;;
56329;SDS011;42236;48.058;10.632;2022-10-01T05:07:06;10.80;;;7.87;;
56329;SDS011;42236;48.058;10.632;2022-10-01T05:09:32;14.07;;;8.30;;
56329;SDS011;42236;48.058;10.632;2022-10-01T05:12:00;11.57;;;8.37;;
56329;SDS011;42236;48.058;10.632;2022-10-01T05:14:53;12.20;;;7.60;;
56329;SDS011;42236;48.058;10.632;2022-10-01T05:17:25;10.57;;;7.87;;
56329;SDS011;42236;48.058;10.632;2022-10-01T05:19:59;12.40;;;8.47;;
56329;SDS011;42236;48.058;10.632;2022-10-01T05:22:30;11.70;;;7.73;;
56329;SDS011;42236;48.058;10.632;2022-10-01T05:25:08;9.57;;;7.60;;
56329;SDS011;42236;48.058;10.632;2022-10-01T05:27:34;11.40;;;7.93;;
56329;SDS011;42236;48.058;10.632;2022-10-01T05:30:15;13.93;;;8.80;;
56329;SDS011;42236;48.058;10.632;2022-10-01T05:32:53;12.43;;;7.73;;
56329;SDS011;42236;48.058;10.632;2022-10-01T05:35:20;10.50;;;8.03;;
56329;SDS011;42236;48.058;10.632;2022-10-01T05:37:46;10.23;;;7.70;;
56329;SDS011;42236;48.058;10.632;2022-10-01T05:40:30;9.43;;;7.13;;
56329;SDS011;42236;48.058;10.632;2022-10-01T05:43:01;9.00;;;7.00;;
56329;SDS011;42236;48.058;10.632;2022-10-01T05:48:09;8.20;;;6.37;;
56329;SDS011;42236;48.058;10.632;2022-10-01T05:50:42;10.20;;;7.60;;
56329;SDS011;42236;48.058;10.632;2022-10-01T05:53:29;9.13;;;7.20;;
56329;SDS011;42236;48.058;10.632;2022-10-01T05:55:55;9.90;;;7.07;;
56329;SDS011;42236;48.058;10.632;2022-10-01T05:58:26;12.33;;;6.93;;
56329;SDS011;42236;48.058;10.632;2022-10-01T06:00:51;8.70;;;7.07;;
56329;SDS011;42236;48.058;10.632;2022-10-01T06:04:17;8.23;;;6.57;;
56329;SDS011;42236;48.058;10.632;2022-10-01T06:06:43;9.50;;;7.13;;
56329;SDS011;42236;48.058;10.632;2022-10-01T06:09:09;10.93;;;6.37;;
56329;SDS011;42236;48.058;10.632;2022-10-01T06:11:35;9.53;;;6.60;;
56329;SDS011;42236;48.058;10.632;2022-10-01T06:14:01;8.03;;;6.50;;
56329;SDS011;42236;48.058;10.632;2022-10-01T06:16:42;8.67;;;6.17;;
56329;SDS011;42236;48.058;10.632;2022-10-01T06:19:14;7.87;;;6.23;;
56329;SDS011;42236;48.058;10.632;2022-10-01T06:21:44;8.40;;;6.17;;
56329;SDS011;42236;48.058;10.632;2022-10-01T06:24:19;8.77;;;6.10;;
56329;SDS011;42236;48.058;10.632;2022-10-01T06:26:44;9.30;;;6.33;;
56329;SDS011;42236;48.058;10.632;2022-10-01T06:29:10;8.87;;;6.67;;
56329;SDS011;42236;48.058;10.632;2022-10-01T06:31:38;8.77;;;6.10;;
56329;SDS011;42236;48.058;10.632;2022-10-01T06:34:15;8.53;;;6.63;;
56329;SDS011;42236;48.058;10.632;2022-10-01T06:37:12;7.97;;;6.37;;
56329;SDS011;42236;48.058;10.632;2022-10-01T06:39:38;8.37;;;6.53;;
56329;SDS011;42236;48.058;10.632;2022-10-01T06:42:03;10.93;;;6.83;;
56329;SDS011;42236;48.058;10.632;2022-10-01T06:44:34;8.70;;;6.80;;
56329;SDS011;42236;48.058;10.632;2022-10-01T06:47:20;7.17;;;5.27;;
56329;SDS011;42236;48.058;10.632;2022-10-01T06:49:48;6.93;;;5.27;;
56329;SDS011;42236;48.058;10.632;2022-10-01T06:52:23;6.53;;;5.43;;
56329;SDS011;42236;48.058;10.632;2022-10-01T06:55:07;8.00;;;5.33;;
56329;SDS011;42236;48.058;10.632;2022-10-01T06:57:36;4.97;;;3.77;;
56329;SDS011;42236;48.058;10.632;2022-10-01T07:00:02;4.53;;;4.00;;
56329;SDS011;42236;48.058;10.632;2022-10-01T07:02:28;3.70;;;3.37;;
56329;SDS011;42236;48.058;10.632;2022-10-01T07:04:54;4.50;;;3.67;;
56329;SDS011;42236;48.058;10.632;2022-10-01T07:07:33;4.33;;;3.63;;
56329;SDS011;42236;48.058;10.632;2022-10-01T07:10:02;7.03;;;3.70;;
56329;SDS011;42236;48.058;10.632;2022-10-01T07:12:30;4.17;;;3.03;;
56329;SDS011;42236;48.058;10.632;2022-10-01T07:14:57;3.93;;;3.13;;
56329;SDS011;42236;48.058;10.632;2022-10-01T07:17:22;3.20;;;2.90;;
56329;SDS011;42236;48.058;10.632;2022-10-01T07:19:48;5.50;;;3.03;;
56329;SDS011;42236;48.058;10.632;2022-10-01T07:22:13;3.20;;;2.60;;
56329;SDS011;42236;48.058;10.632;2022-10-01T07:24:38;4.73;;;3.10;;
56329;SDS011;42236;48.058;10.632;2022-10-01T07:27:04;2.80;;;2.50;;
56329;SDS011;42236;48.058;10.632;2022-10-01T07:29:29;3.87;;;2.63;;
56329;SDS011;42236;48.058;10.632;2022-10-01T07:31:56;3.63;;;2.53;;
56329;SDS011;42236;48.058;10.632;2022-10-01T07:34:25;3.43;;;2.47;;
56329;SDS011;42236;48.058;10.632;2022-10-01T07:36:52;2.77;;;2.40;;
56329;SDS011;42236;48.058;10.632;2022-10-01T07:39:18;3.93;;;2.30;;
56329;SDS011;42236;48.058;10.632;2022-10-01T07:41:44;2.70;;;2.50;;
56329;SDS011;42236;48.058;10.632;2022-10-01T07:44:09;2.77;;;2.33;;
56329;SDS011;42236;48.058;10.632;2022-10-01T07:46:38;2.37;;;1.80;;
56329;SDS011;42236;48.058;10.632;2022-10-01T07:49:04;3.30;;;2.00;;
56329;SDS011;42236;48.058;10.632;2022-10-01T07:51:30;2.90;;;2.10;;
56329;SDS011;42236;48.058;10.632;2022-10-01T07:53:55;2.60;;;1.77;;
56329;SDS011;42236;48.058;10.632;2022-10-01T07:56:22;4.13;;;2.07;;
56329;SDS011;42236;48.058;10.632;2022-10-01T07:58:47;2.50;;;2.30;;
56329;SDS011;42236;48.058;10.632;2022-10-01T08:01:12;5.70;;;2.20;;
56329;SDS011;42236;48.058;10.632;2022-10-01T08:03:38;2.10;;;1.90;;
56329;SDS011;42236;48.058;10.632;2022-10-01T08:06:03;1.80;;;1.67;;
56329;SDS011;42236;48.058;10.632;2022-10-01T08:08:30;2.07;;;1.43;;
56329;SDS011;42236;48.058;10.632;2022-10-01T08:10:56;1.60;;;1.50;;
56329;SDS011;42236;48.058;10.632;2022-10-01T08:13:21;1.27;;;1.17;;
56329;SDS011;42236;48.058;10.632;2022-10-01T08:15:49;1.40;;;1.30;;
56329;SDS011;42236;48.058;10.632;2022-10-01T08:18:17;2.90;;;1.40;;
56329;SDS011;42236;48.058;10.632;2022-10-01T08:20:43;1.10;;;1.00;;
56329;SDS011;42236;48.058;10.632;2022-10-01T08:23:09;1.77;;;0.90;;
56329;SDS011;42236;48.058;10.632;2022-10-01T08:25:37;2.07;;;1.20;;
56329;SDS011;42236;48.058;10.632;2022-10-01T08:28:03;0.80;;;0.80;;
56329;SDS011;42236;48.058;10.632;2022-10-01T08:30:30;1.50;;;0.83;;
56329;SDS011;42236;48.058;10.632;2022-10-01T08:32:56;1.10;;;0.97;;
56329;SDS011;42236;48.058;10.632;2022-10-01T08:35:23;2.00;;;0.97;;
56329;SDS011;42236;48.058;10.632;2022-10-01T08:37:49;1.57;;;0.97;;
56329;SDS011;42236;48.058;10.632;2022-10-01T08:40:14;1.27;;;1.17;;
56329;SDS011;42236;48.058;10.632;2022-10-01T08:45:10;2.20;;;0.97;;
56329;SDS011;42236;48.058;10.632;2022-10-01T08:47:40;1.23;;;1.20;;
56329;SDS011;42236;48.058;10.632;2022-10-01T08:52:54;1.70;;;1.10;;
56329;SDS011;42236;48.058;10.632;2022-10-01T08:55:25;1.20;;;1.10;;
56329;SDS011;42236;48.058;10.632;2022-10-01T08:57:53;1.20;;;1.10;;
56329;SDS011;42236;48.058;10.632;2022-10-01T09:00:22;1.03;;;1.00;;
56329;SDS011;42236;48.058;10.632;2022-10-01T09:02:48;0.83;;;0.83;;
56329;SDS011;42236;48.058;10.632;2022-10-01T09:05:23;1.53;;;1.00;;
56329;SDS011;42236;48.058;10.632;2022-10-01T09:08:00;0.90;;;0.90;;
56329;SDS011;42236;48.058;10.632;2022-10-01T09:13:31;1.13;;;0.97;;
56329;SDS011;42236;48.058;10.632;2022-10-01T09:16:12;0.90;;;0.80;;
56329;SDS011;42236;48.058;10.632;2022-10-01T09:21:46;1.47;;;1.00;;
56329;SDS011;42236;48.058;10.632;2022-10-01T09:24:30;1.10;;;0.97;;
56329;SDS011;42236;48.058;10.632;2022-10-01T09:27:13;1.00;;;0.90;;
56329;SDS011;42236;48.058;10.632;2022-10-01T09:29:46;1.67;;;0.97;;
56329;SDS011;42236;48.058;10.632;2022-10-01T09:32:17;1.10;;;1.00;;
56329;SDS011;42236;48.058;10.632;2022-10-01T09:34:48;0.80;;;0.80;;
56329;SDS011;42236;48.058;10.632;2022-10-01T09:40:11;1.20;;;1.10;;
56329;SDS011;42236;48.058;10.632;2022-10-01T09:42:44;1.00;;;1.00;;
56329;SDS011;42236;48.058;10.632;2022-10-01T09:45:14;1.60;;;1.10;;
56329;SDS011;42236;48.058;10.632;2022-10-01T09:47:42;5.60;;;2.73;;
56329;SDS011;42236;48.058;10.632;2022-10-01T09:50:14;4.17;;;2.53;;
56329;SDS011;42236;48.058;10.632;2022-10-01T09:52:43;1.63;;;1.30;;
56329;SDS011;42236;48.058;10.632;2022-10-01T09:57:46;1.87;;;1.27;;
56329;SDS011;42236;48.058;10.632;2022-10-01T10:00:18;1.37;;;1.13;;
56329;SDS011;42236;48.058;10.632;2022-10-01T10:02:46;1.97;;;1.20;;
56329;SDS011;42236;48.058;10.632;2022-10-01T10:05:14;1.67;;;1.20;;
56329;SDS011;42236;48.058;10.632;2022-10-01T10:07:55;1.27;;;1.17;;
56329;SDS011;42236;48.058;10.632;2022-10-01T10:10:30;1.30;;;1.00;;
56329;SDS011;42236;48.058;10.632;2022-10-01T10:13:04;3.60;;;1.03;;
56329;SDS011;42236;48.058;10.632;2022-10-01T10:15:42;1.40;;;1.30;;
56329;SDS011;42236;48.058;10.632;2022-10-01T10:18:14;1.53;;;1.43;;
56329;SDS011;42236;48.058;10.632;2022-10-01T10:20:42;2.50;;;1.70;;
56329;SDS011;42236;48.058;10.632;2022-10-01T10:23:16;1.63;;;1.50;;
56329;SDS011;42236;48.058;10.632;2022-10-01T10:25:42;1.67;;;1.50;;
56329;SDS011;42236;48.058;10.632;2022-10-01T10:28:17;2.10;;;1.33;;
56329;SDS011;42236;48.058;10.632;2022-10-01T10:30:47;2.57;;;1.30;;
56329;SDS011;42236;48.058;10.632;2022-10-01T10:33:16;2.17;;;1.60;;
56329;SDS011;42236;48.058;10.632;2022-10-01T10:35:44;2.03;;;1.60;;
56329;SDS011;42236;48.058;10.632;2022-10-01T10:38:17;1.40;;;1.30;;
56329;SDS011;42236;48.058;10.632;2022-10-01T10:40:44;2.30;;;1.57;;
56329;SDS011;42236;48.058;10.632;2022-10-01T10:43:19;1.40;;;1.30;;
56329;SDS011;42236;48.058;10.632;2022-10-01T10:45:52;1.50;;;1.23;;
56329;SDS011;42236;48.058;10.632;2022-10-01T10:48:20;1.60;;;1.50;;
56329;SDS011;42236;48.058;10.632;2022-10-01T10:50:48;1.37;;;1.27;;
56329;SDS011;42236;48.058;10.632;2022-10-01T10:53:20;2.27;;;1.70;;
56329;SDS011;42236;48.058;10.632;2022-10-01T10:55:51;1.63;;;1.50;;
56329;SDS011;42236;48.058;10.632;2022-10-01T10:58:25;1.87;;;1.70;;
56329;SDS011;42236;48.058;10.632;2022-10-01T11:00:52;1.93;;;1.73;;
56329;SDS011;42236;48.058;10.632;2022-10-01T11:03:25;2.50;;;1.77;;
56329;SDS011;42236;48.058;10.632;2022-10-01T11:05:54;2.47;;;1.70;;
56329;SDS011;42236;48.058;10.632;2022-10-01T11:08:26;1.77;;;1.67;;
56329;SDS011;42236;48.058;10.632;2022-10-01T11:11:02;2.93;;;1.40;;
56329;SDS011;42236;48.058;10.632;2022-10-01T11:27:51;1.90;;;1.53;;
56329;SDS011;42236;48.058;10.632;2022-10-01T11:30:28;2.30;;;1.43;;
56329;SDS011;42236;48.058;10.632;2022-10-01T11:33:06;2.00;;;1.30;;
56329;SDS011;42236;48.058;10.632;2022-10-01T11:35:43;1.30;;;1.20;;
56329;SDS011;42236;48.058;10.632;2022-10-01T11:38:33;1.00;;;1.00;;
56329;SDS011;42236;48.058;10.632;2022-10-01T11:41:14;1.27;;;1.23;;
56329;SDS011;42236;48.058;10.632;2022-10-01T11:43:50;2.47;;;1.30;;
56329;SDS011;42236;48.058;10.632;2022-10-01T11:46:24;1.43;;;1.10;;
56329;SDS011;42236;48.058;10.632;2022-10-01T11:49:01;2.17;;;1.40;;
56329;SDS011;42236;48.058;10.632;2022-10-01T11:51:51;1.07;;;1.03;;
56329;SDS011;42236;48.058;10.632;2022-10-01T11:54:24;1.53;;;1.30;;
56329;SDS011;42236;48.058;10.632;2022-10-01T11:56:53;1.20;;;1.10;;
56329;SDS011;42236;48.058;10.632;2022-10-01T11:59:51;2.23;;;1.30;;
56329;SDS011;42236;48.058;10.632;2022-10-01T12:04:55;2.17;;;1.10;;
56329;SDS011;42236;48.058;10.632;2022-10-01T12:07:28;1.47;;;1.30;;
56329;SDS011;42236;48.058;10.632;2022-10-01T12:10:59;2.37;;;1.30;;
56329;SDS011;42236;48.058;10.632;2022-10-01T12:15:58;1.73;;;0.77;;
56329;SDS011;42236;48.058;10.632;2022-10-01T12:18:31;0.80;;;0.80;;
56329;SDS011;42236;48.058;10.632;2022-10-01T12:20:58;2.40;;;0.77;;
56329;SDS011;42236;48.058;10.632;2022-10-01T12:23:28;0.80;;;0.80;;
56329;SDS011;42236;48.058;10.632;2022-10-01T12:34:29;1.03;;;0.93;;
56329;SDS011;42236;48.058;10.632;2022-10-01T12:37:10;1.10;;;1.00;;
56329;SDS011;42236;48.058;10.632;2022-10-01T12:42:50;1.07;;;0.87;;
56329;SDS011;42236;48.058;10.632;2022-10-01T12:53:49;1.00;;;1.00;;
56329;SDS011;42236;48.058;10.632;2022-10-01T12:56:37;1.10;;;1.00;;
56329;SDS011;42236;48.058;10.632;2022-10-01T13:01:41;0.70;;;0.70;;
56329;SDS011;42236;48.058;10.632;2022-10-01T13:04:22;1.40;;;0.80;;
56329;SDS011;42236;48.058;10.632;2022-10-01T13:09:52;2.00;;;0.70;;
56329;SDS011;42236;48.058;10.632;2022-10-01T13:12:37;1.03;;;0.93;;
56329;SDS011;42236;48.058;10.632;2022-10-01T13:15:21;0.70;;;0.70;;
56329;SDS011;42236;48.058;10.632;2022-10-01T13:18:10;1.00;;;1.00;;
56329;SDS011;42236;48.058;10.632;2022-10-01T13:20:45;0.93;;;0.90;;
56329;SDS011;42236;48.058;10.632;2022-10-01T13:23:30;1.47;;;0.80;;
56329;SDS011;42236;48.058;10.632;2022-10-01T13:26:06;0.87;;;0.70;;
56329;SDS011;42236;48.058;10.632;2022-10-01T13:31:13;0.80;;;0.80;;
56329;SDS011;42236;48.058;10.632;2022-10-01T13:33:40;0.80;;;0.70;;
56329;SDS011;42236;48.058;10.632;2022-10-01T13:36:06;1.37;;;0.80;;
56329;SDS011;42236;48.058;10.632;2022-10-01T13:41:02;1.37;;;0.80;;
56329;SDS011;42236;48.058;10.632;2022-10-01T13:43:29;3.33;;;0.70;;
56329;SDS011;42236;48.058;10.632;2022-10-01T13:46:31;1.00;;;0.80;;
56329;SDS011;42236;48.058;10.632;2022-10-01T13:48:52;0.70;;;0.70;;
56329;SDS011;42236;48.058;10.632;2022-10-01T13:51:18;1.10;;;1.00;;
56329;SDS011;42236;48.058;10.632;2022-10-01T13:56:26;1.00;;;0.90;;
56329;SDS011;42236;48.058;10.632;2022-10-01T13:58:54;1.87;;;0.80;;
56329;SDS011;42236;48.058;10.632;2022-10-01T14:03:59;0.70;;;0.70;;
56329;SDS011;42236;48.058;10.632;2022-10-01T14:11:58;0.83;;;0.70;;
56329;SDS011;42236;48.058;10.632;2022-10-01T14:14:50;1.00;;;0.90;;
56329;SDS011;42236;48.058;10.632;2022-10-01T14:17:38;1.10;;;0.83;;
56329;SDS011;42236;48.058;10.632;2022-10-01T14:20:05;0.70;;;0.67;;
56329;SDS011;42236;48.058;10.632;2022-10-01T14:27:37;0.70;;;0.70;;
56329;SDS011;42236;48.058;10.632;2022-10-01T14:30:10;0.70;;;0.70;;
56329;SDS011;42236;48.058;10.632;2022-10-01T14:38:44;0.80;;;0.80;;
56329;SDS011;42236;48.058;10.632;2022-10-01T14:41:16;1.87;;;0.80;;
56329;SDS011;42236;48.058;10.632;2022-10-01T14:43:43;1.80;;;0.90;;
56329;SDS011;42236;48.058;10.632;2022-10-01T14:46:13;0.97;;;0.87;;
56329;SDS011;42236;48.058;10.632;2022-10-01T14:48:40;0.80;;;0.80;;
56329;SDS011;42236;48.058;10.632;2022-10-01T14:51:18;0.80;;;0.80;;
56329;SDS011;42236;48.058;10.632;2022-10-01T14:53:50;1.37;;;0.80;;
56329;SDS011;42236;48.058;10.632;2022-10-01T14:56:17;0.83;;;0.67;;
56329;SDS011;42236;48.058;10.632;2022-10-01T14:58:45;0.80;;;0.80;;
56329;SDS011;42236;48.058;10.632;2022-10-01T15:01:16;0.50;;;0.50;;
56329;SDS011;42236;48.058;10.632;2022-10-01T15:03:44;0.90;;;0.73;;
56329;SDS011;42236;48.058;10.632;2022-10-01T15:06:14;0.80;;;0.80;;
56329;SDS011;42236;48.058;10.632;2022-10-01T15:08:43;0.67;;;0.67;;
56329;SDS011;42236;48.058;10.632;2022-10-01T15:11:21;2.30;;;0.60;;
56329;SDS011;42236;48.058;10.632;2022-10-01T15:13:52;0.80;;;0.80;;
56329;SDS011;42236;48.058;10.632;2022-10-01T15:16:20;2.60;;;0.50;;
56329;SDS011;42236;48.058;10.632;2022-10-01T15:18:48;3.87;;;0.57;;
56329;SDS011;42236;48.058;10.632;2022-10-01T15:21:18;0.50;;;0.50;;
56329;SDS011;42236;48.058;10.632;2022-10-01T15:23:48;0.80;;;0.60;;
56329;SDS011;42236;48.058;10.632;2022-10-01T15:26:17;0.70;;;0.70;;
56329;SDS011;42236;48.058;10.632;2022-10-01T15:28:46;2.30;;;0.60;;
56329;SDS011;42236;48.058;10.632;2022-10-01T15:31:12;1.43;;;0.60;;
56329;SDS011;42236;48.058;10.632;2022-10-01T15:33:38;0.90;;;0.60;;
56329;SDS011;42236;48.058;10.632;2022-10-01T15:36:05;0.50;;;0.50;;
56329;SDS011;42236;48.058;10.632;2022-10-01T15:38:50;0.60;;;0.60;;
56329;SDS011;42236;48.058;10.632;2022-10-01T15:41:20;0.40;;;0.40;;
56329;SDS011;42236;48.058;10.632;2022-10-01T15:43:48;1.20;;;0.50;;
56329;SDS011;42236;48.058;10.632;2022-10-01T15:48:41;0.40;;;0.40;;
56329;SDS011;42236;48.058;10.632;2022-10-01T15:51:28;0.37;;;0.37;;
56329;SDS011;42236;48.058;10.632;2022-10-01T15:53:52;1.20;;;0.50;;
56329;SDS011;42236;48.058;10.632;2022-10-01T15:56:29;0.50;;;0.50;;
56329;SDS011;42236;48.058;10.632;2022-10-01T15:59:00;0.87;;;0.40;;
56329;SDS011;42236;48.058;10.632;2022-10-01T16:01:38;0.50;;;0.50;;
56329;SDS011;42236;48.058;10.632;2022-10-01T16:09:12;0.40;;;0.40;;
56329;SDS011;42236;48.058;10.632;2022-10-01T16:12:01;0.30;;;0.30;;
56329;SDS011;42236;48.058;10.632;2022-10-01T16:14:34;0.30;;;0.30;;
56329;SDS011;42236;48.058;10.632;2022-10-01T16:19:41;3.20;;;0.33;;
56329;SDS011;42236;48.058;10.632;2022-10-01T16:27:42;0.30;;;0.30;;
56329;SDS011;42236;48.058;10.632;2022-10-01T16:32:51;0.70;;;0.60;;
56329;SDS011;42236;48.058;10.632;2022-10-01T16:35:18;0.50;;;0.50;;
56329;SDS011;42236;48.058;10.632;2022-10-01T16:37:46;1.03;;;0.43;;
56329;SDS011;42236;48.058;10.632;2022-10-01T16:40:14;0.50;;;0.50;;
56329;SDS011;42236;48.058;10.632;2022-10-01T16:42:40;0.50;;;0.50;;
56329;SDS011;42236;48.058;10.632;2022-10-01T16:45:08;0.60;;;0.60;;
56329;SDS011;42236;48.058;10.632;2022-10-01T16:47:39;0.50;;;0.50;;
56329;SDS011;42236;48.058;10.632;2022-10-01T16:50:08;0.60;;;0.60;;
56329;SDS011;42236;48.058;10.632;2022-10-01T16:52:34;0.50;;;0.50;;
56329;SDS011;42236;48.058;10.632;2022-10-01T16:55:01;0.40;;;0.40;;
56329;SDS011;42236;48.058;10.632;2022-10-01T16:57:27;1.07;;;0.53;;
56329;SDS011;42236;48.058;10.632;2022-10-01T16:59:52;0.60;;;0.60;;
56329;SDS011;42236;48.058;10.632;2022-10-01T17:02:18;0.50;;;0.50;;
56329;SDS011;42236;48.058;10.632;2022-10-01T17:04:43;1.83;;;0.70;;
56329;SDS011;42236;48.058;10.632;2022-10-01T17:07:08;0.50;;;0.50;;
56329;SDS011;42236;48.058;10.632;2022-10-01T17:09:34;0.60;;;0.50;;
56329;SDS011;42236;48.058;10.632;2022-10-01T17:11:59;0.53;;;0.53;;
56329;SDS011;42236;48.058;10.632;2022-10-01T17:14:25;0.70;;;0.60;;
56329;SDS011;42236;48.058;10.632;2022-10-01T17:16:51;0.50;;;0.50;;
56329;SDS011;42236;48.058;10.632;2022-10-01T17:19:17;0.53;;;0.53;;
56329;SDS011;42236;48.058;10.632;2022-10-01T17:21:43;0.97;;;0.67;;
56329;SDS011;42236;48.058;10.632;2022-10-01T17:24:09;0.40;;;0.40;;
56329;SDS011;42236;48.058;10.632;2022-10-01T17:26:35;0.63;;;0.53;;
56329;SDS011;42236;48.058;10.632;2022-10-01T17:29:09;0.53;;;0.53;;
56329;SDS011;42236;48.058;10.632;2022-10-01T17:31:35;0.60;;;0.60;;
56329;SDS011;42236;48.058;10.632;2022-10-01T17:34:02;1.03;;;0.60;;
56329;SDS011;42236;48.058;10.632;2022-10-01T17:36:28;0.60;;;0.60;;
56329;SDS011;42236;48.058;10.632;2022-10-01T17:38:54;0.50;;;0.50;;
56329;SDS011;42236;48.058;10.632;2022-10-01T17:41:20;0.40;;;0.40;;
56329;SDS011;42236;48.058;10.632;2022-10-01T17:43:45;0.63;;;0.63;;
56329;SDS011;42236;48.058;10.632;2022-10-01T17:46:10;0.70;;;0.50;;
56329;SDS011;42236;48.058;10.632;2022-10-01T17:48:35;0.87;;;0.60;;
56329;SDS011;42236;48.058;10.632;2022-10-01T17:51:02;0.40;;;0.40;;
56329;SDS011;42236;48.058;10.632;2022-10-01T17:53:30;1.33;;;0.60;;
56329;SDS011;42236;48.058;10.632;2022-10-01T17:55:57;0.43;;;0.43;;
56329;SDS011;42236;48.058;10.632;2022-10-01T17:58:23;0.83;;;0.50;;
56329;SDS011;42236;48.058;10.632;2022-10-01T18:00:48;0.57;;;0.57;;
56329;SDS011;42236;48.058;10.632;2022-10-01T18:03:14;0.40;;;0.40;;
56329;SDS011;42236;48.058;10.632;2022-10-01T18:05:41;0.50;;;0.50;;
56329;SDS011;42236;48.058;10.632;2022-10-01T18:08:07;0.50;;;0.50;;
56329;SDS011;42236;48.058;10.632;2022-10-01T18:10:33;0.50;;;0.40;;
56329;SDS011;42236;48.058;10.632;2022-10-01T18:12:58;0.40;;;0.40;;
56329;SDS011;42236;48.058;10.632;2022-10-01T18:15:23;0.67;;;0.40;;
56329;SDS011;42236;48.058;10.632;2022-10-01T18:17:49;0.50;;;0.50;;
56329;SDS011;42236;48.058;10.632;2022-10-01T18:20:17;0.40;;;0.40;;
56329;SDS011;42236;48.058;10.632;2022-10-01T18:22:45;0.50;;;0.47;;
56329;SDS011;42236;48.058;10.632;2022-10-01T18:25:11;0.40;;;0.40;;
56329;SDS011;42236;48.058;10.632;2022-10-01T18:27:39;0.40;;;0.40;;
56329;SDS011;42236;48.058;10.632;2022-10-01T18:30:04;0.73;;;0.40;;
56329;SDS011;42236;48.058;10.632;2022-10-01T18:32:31;0.30;;;0.30;;
56329;SDS011;42236;48.058;10.632;2022-10-01T18:35:16;0.33;;;0.33;;
56329;SDS011;42236;48.058;10.632;2022-10-01T18:37:52;0.30;;;0.30;;
56329;SDS011;42236;48.058;10.632;2022-10-01T18:43:03;0.40;;;0.40;;
56329;SDS011;42236;48.058;10.632;2022-10-01T18:56:53;0.20;;;0.20;;
56329;SDS011;42236;48.058;10.632;2022-10-01T19:07:51;0.50;;;0.20;;
56329;SDS011;42236;48.058;10.632;2022-10-01T19:16:15;0.20;;;0.20;;
56329;SDS011;42236;48.058;10.632;2022-10-01T19:29:45;0.20;;;0.20;;
56329;SDS011;42236;48.058;10.632;2022-10-01T19:32:22;0.20;;;0.20;;
56329;SDS011;42236;48.058;10.632;2022-10-01T19:37:54;0.17;;;0.17;;
56329;SDS011;42236;48.058;10.632;2022-10-01T19:43:06;0.20;;;0.20;;
56329;SDS011;42236;48.058;10.632;2022-10-01T19:45:43;0.57;;;0.20;;
56329;SDS011;42236;48.058;10.632;2022-10-01T19:48:17;0.20;;;0.20;;
56329;SDS011;42236;48.058;10.632;2022-10-01T19:50:54;0.20;;;0.20;;